Popsquash, Vermont
Current Conditions -  °F | °C
As of 6:55 AM on Monday 22 Dec 2014 (Local Time) from KFSO Reporting Station
Haze Haze  
Wind Chill: -9°   Ceiling: 400
Heat Index: -9°   Visibility: 5mi
Dew Point: -10°   Wind: 0mph
Humidity: 93%   Direction: NA
Pressure: 30.41"   Gusts: NA
Location:  44.9002°N, 73.1493°W
Report Text: KFSO 221155Z AUTO 00000KT 5SM BR OVC004 M08/M09 A3041 RMK AO2 T10851095 11070 21090
Loading
Personal Weather Stations






























Interactive Weather Map New forecast layout! Learn more

10-Day Weather Forecast

Advertisements
Track Severe Weather on mobile